sensor_id;sensor_type;location;lat;lon;timestamp;P1;durP1;ratioP1;P2;durP2;ratioP2
81544;SDS011;70990;50.618;7.346;2023-07-31T00:09:55;5.15;;;1.45;;
81544;SDS011;70990;50.618;7.346;2023-07-31T00:12:22;4.28;;;1.40;;
81544;SDS011;70990;50.618;7.346;2023-07-31T10:15:12;3.97;;;1.50;;
81544;SDS011;70990;50.618;7.346;2023-07-31T10:18:00;4.50;;;1.48;;
81544;SDS011;70990;50.618;7.346;2023-07-31T10:20:49;4.20;;;1.40;;
81544;SDS011;70990;50.618;7.346;2023-07-31T10:23:24;5.72;;;1.70;;
81544;SDS011;70990;50.618;7.346;2023-07-31T10:26:32;3.53;;;1.25;;
81544;SDS011;70990;50.618;7.346;2023-07-31T10:32:56;6.50;;;1.80;;
81544;SDS011;70990;50.618;7.346;2023-07-31T10:35:23;4.97;;;1.80;;
81544;SDS011;70990;50.618;7.346;2023-07-31T10:37:50;5.10;;;1.80;;
81544;SDS011;70990;50.618;7.346;2023-07-31T10:40:19;6.05;;;2.03;;
81544;SDS011;70990;50.618;7.346;2023-07-31T10:42:50;4.97;;;1.55;;
81544;SDS011;70990;50.618;7.346;2023-07-31T10:45:31;4.20;;;1.27;;
81544;SDS011;70990;50.618;7.346;2023-07-31T10:48:05;4.45;;;1.52;;
81544;SDS011;70990;50.618;7.346;2023-07-31T10:50:55;6.47;;;1.40;;
81544;SDS011;70990;50.618;7.346;2023-07-31T10:53:25;4.28;;;1.58;;
81544;SDS011;70990;50.618;7.346;2023-07-31T10:58:30;4.38;;;1.52;;
81544;SDS011;70990;50.618;7.346;2023-07-31T11:04:24;5.45;;;1.40;;
81544;SDS011;70990;50.618;7.346;2023-07-31T11:06:58;8.07;;;1.38;;
81544;SDS011;70990;50.618;7.346;2023-07-31T11:09:29;5.93;;;1.38;;
81544;SDS011;70990;50.618;7.346;2023-07-31T11:11:57;3.83;;;1.58;;
81544;SDS011;70990;50.618;7.346;2023-07-31T11:14:25;5.60;;;1.30;;
81544;SDS011;70990;50.618;7.346;2023-07-31T11:16:52;4.72;;;1.58;;
81544;SDS011;70990;50.618;7.346;2023-07-31T11:19:25;3.67;;;1.20;;
81544;SDS011;70990;50.618;7.346;2023-07-31T11:21:52;2.35;;;1.15;;
81544;SDS011;70990;50.618;7.346;2023-07-31T11:24:19;2.85;;;1.20;;
81544;SDS011;70990;50.618;7.346;2023-07-31T11:26:52;4.00;;;1.30;;
81544;SDS011;70990;50.618;7.346;2023-07-31T11:29:19;2.60;;;1.00;;
81544;SDS011;70990;50.618;7.346;2023-07-31T11:31:46;5.05;;;1.10;;
81544;SDS011;70990;50.618;7.346;2023-07-31T11:34:13;4.20;;;1.10;;
81544;SDS011;70990;50.618;7.346;2023-07-31T11:36:40;4.82;;;1.27;;
81544;SDS011;70990;50.618;7.346;2023-07-31T11:39:08;4.00;;;1.15;;
81544;SDS011;70990;50.618;7.346;2023-07-31T11:41:35;4.15;;;1.40;;
81544;SDS011;70990;50.618;7.346;2023-07-31T11:44:02;3.15;;;0.93;;
81544;SDS011;70990;50.618;7.346;2023-07-31T11:46:48;4.60;;;1.00;;
81544;SDS011;70990;50.618;7.346;2023-07-31T11:49:15;3.72;;;1.25;;
81544;SDS011;70990;50.618;7.346;2023-07-31T11:51:41;3.47;;;1.20;;
81544;SDS011;70990;50.618;7.346;2023-07-31T11:54:09;3.50;;;1.00;;
81544;SDS011;70990;50.618;7.346;2023-07-31T11:56:35;4.03;;;1.10;;
81544;SDS011;70990;50.618;7.346;2023-07-31T11:59:02;3.72;;;1.20;;
81544;SDS011;70990;50.618;7.346;2023-07-31T12:01:29;2.42;;;1.10;;
81544;SDS011;70990;50.618;7.346;2023-07-31T12:03:56;3.30;;;0.95;;
81544;SDS011;70990;50.618;7.346;2023-07-31T12:06:33;2.15;;;1.05;;
81544;SDS011;70990;50.618;7.346;2023-07-31T12:11:47;3.67;;;1.23;;
81544;SDS011;70990;50.618;7.346;2023-07-31T12:17:35;2.08;;;0.90;;
81544;SDS011;70990;50.618;7.346;2023-07-31T12:20:04;2.47;;;0.90;;
81544;SDS011;70990;50.618;7.346;2023-07-31T12:22:31;3.42;;;1.10;;
81544;SDS011;70990;50.618;7.346;2023-07-31T12:24:57;3.47;;;1.13;;
81544;SDS011;70990;50.618;7.346;2023-07-31T12:27:24;3.75;;;1.40;;
81544;SDS011;70990;50.618;7.346;2023-07-31T12:29:54;6.32;;;1.75;;
81544;SDS011;70990;50.618;7.346;2023-07-31T12:32:23;4.22;;;1.23;;
81544;SDS011;70990;50.618;7.346;2023-07-31T12:34:51;4.88;;;1.50;;
81544;SDS011;70990;50.618;7.346;2023-07-31T12:37:33;5.00;;;1.88;;
81544;SDS011;70990;50.618;7.346;2023-07-31T12:39:59;5.93;;;2.30;;
81544;SDS011;70990;50.618;7.346;2023-07-31T12:42:26;5.60;;;1.90;;
81544;SDS011;70990;50.618;7.346;2023-07-31T12:44:53;8.55;;;3.13;;
81544;SDS011;70990;50.618;7.346;2023-07-31T12:47:19;8.07;;;2.10;;
81544;SDS011;70990;50.618;7.346;2023-07-31T12:49:46;4.57;;;1.80;;
81544;SDS011;70990;50.618;7.346;2023-07-31T12:52:12;5.35;;;2.13;;
81544;SDS011;70990;50.618;7.346;2023-07-31T12:54:39;6.22;;;2.28;;
81544;SDS011;70990;50.618;7.346;2023-07-31T12:57:05;5.75;;;2.20;;
81544;SDS011;70990;50.618;7.346;2023-07-31T12:59:35;5.65;;;2.67;;
81544;SDS011;70990;50.618;7.346;2023-07-31T13:02:03;5.78;;;1.98;;
81544;SDS011;70990;50.618;7.346;2023-07-31T13:04:37;5.38;;;2.22;;
81544;SDS011;70990;50.618;7.346;2023-07-31T13:07:04;6.97;;;2.00;;
81544;SDS011;70990;50.618;7.346;2023-07-31T13:09:49;5.07;;;1.90;;
81544;SDS011;70990;50.618;7.346;2023-07-31T13:12:44;6.30;;;2.05;;
81544;SDS011;70990;50.618;7.346;2023-07-31T13:15:11;3.88;;;1.48;;
81544;SDS011;70990;50.618;7.346;2023-07-31T13:17:38;4.78;;;1.88;;
81544;SDS011;70990;50.618;7.346;2023-07-31T13:23:03;4.72;;;1.63;;
81544;SDS011;70990;50.618;7.346;2023-07-31T13:25:30;6.78;;;2.08;;
81544;SDS011;70990;50.618;7.346;2023-07-31T13:27:56;9.45;;;4.15;;
81544;SDS011;70990;50.618;7.346;2023-07-31T13:30:26;3.70;;;1.40;;
81544;SDS011;70990;50.618;7.346;2023-07-31T13:32:52;3.80;;;1.50;;
81544;SDS011;70990;50.618;7.346;2023-07-31T13:35:19;4.70;;;1.60;;
81544;SDS011;70990;50.618;7.346;2023-07-31T13:37:45;4.20;;;1.30;;
81544;SDS011;70990;50.618;7.346;2023-07-31T13:40:12;4.43;;;1.70;;
81544;SDS011;70990;50.618;7.346;2023-07-31T13:42:38;4.57;;;1.30;;
81544;SDS011;70990;50.618;7.346;2023-07-31T13:45:05;4.78;;;1.30;;
81544;SDS011;70990;50.618;7.346;2023-07-31T13:47:33;4.00;;;1.55;;
81544;SDS011;70990;50.618;7.346;2023-07-31T13:49:59;5.60;;;1.48;;
81544;SDS011;70990;50.618;7.346;2023-07-31T13:52:26;4.20;;;1.40;;
81544;SDS011;70990;50.618;7.346;2023-07-31T13:54:53;3.03;;;1.17;;
81544;SDS011;70990;50.618;7.346;2023-07-31T13:57:19;2.80;;;1.10;;
81544;SDS011;70990;50.618;7.346;2023-07-31T13:59:46;5.15;;;1.58;;
81544;SDS011;70990;50.618;7.346;2023-07-31T14:02:13;2.35;;;1.10;;
81544;SDS011;70990;50.618;7.346;2023-07-31T14:04:39;3.80;;;1.30;;
81544;SDS011;70990;50.618;7.346;2023-07-31T14:07:06;3.08;;;1.10;;
81544;SDS011;70990;50.618;7.346;2023-07-31T14:09:32;3.90;;;1.33;;
81544;SDS011;70990;50.618;7.346;2023-07-31T14:14:43;6.03;;;1.50;;
81544;SDS011;70990;50.618;7.346;2023-07-31T14:17:09;4.85;;;1.30;;
81544;SDS011;70990;50.618;7.346;2023-07-31T14:19:36;3.92;;;1.30;;
81544;SDS011;70990;50.618;7.346;2023-07-31T14:22:26;2.88;;;1.25;;
81544;SDS011;70990;50.618;7.346;2023-07-31T14:24:56;2.90;;;1.20;;
81544;SDS011;70990;50.618;7.346;2023-07-31T14:27:22;2.88;;;1.20;;
81544;SDS011;70990;50.618;7.346;2023-07-31T14:29:49;3.90;;;1.50;;
81544;SDS011;70990;50.618;7.346;2023-07-31T14:32:16;2.63;;;0.90;;
81544;SDS011;70990;50.618;7.346;2023-07-31T14:34:42;3.92;;;1.50;;
81544;SDS011;70990;50.618;7.346;2023-07-31T14:37:09;2.70;;;1.15;;
81544;SDS011;70990;50.618;7.346;2023-07-31T14:39:35;4.15;;;1.20;;
81544;SDS011;70990;50.618;7.346;2023-07-31T14:42:06;2.95;;;1.23;;
81544;SDS011;70990;50.618;7.346;2023-07-31T14:44:33;3.05;;;1.38;;
81544;SDS011;70990;50.618;7.346;2023-07-31T14:46:59;5.53;;;1.27;;
81544;SDS011;70990;50.618;7.346;2023-07-31T14:49:26;3.13;;;1.00;;
81544;SDS011;70990;50.618;7.346;2023-07-31T14:54:32;2.95;;;1.20;;
81544;SDS011;70990;50.618;7.346;2023-07-31T14:56:59;5.30;;;1.27;;
81544;SDS011;70990;50.618;7.346;2023-07-31T14:59:25;3.40;;;1.13;;
81544;SDS011;70990;50.618;7.346;2023-07-31T15:01:51;4.38;;;1.35;;
81544;SDS011;70990;50.618;7.346;2023-07-31T15:04:18;2.58;;;0.95;;
81544;SDS011;70990;50.618;7.346;2023-07-31T15:06:44;6.47;;;1.50;;
81544;SDS011;70990;50.618;7.346;2023-07-31T15:09:11;2.65;;;0.85;;
81544;SDS011;70990;50.618;7.346;2023-07-31T15:14:22;5.57;;;1.40;;
81544;SDS011;70990;50.618;7.346;2023-07-31T15:16:50;2.80;;;1.20;;
81544;SDS011;70990;50.618;7.346;2023-07-31T15:19:16;3.97;;;1.45;;
81544;SDS011;70990;50.618;7.346;2023-07-31T15:21:43;3.53;;;1.40;;
81544;SDS011;70990;50.618;7.346;2023-07-31T15:24:09;5.28;;;1.27;;
81544;SDS011;70990;50.618;7.346;2023-07-31T15:26:36;3.45;;;1.30;;
81544;SDS011;70990;50.618;7.346;2023-07-31T15:29:06;4.28;;;1.50;;
81544;SDS011;70990;50.618;7.346;2023-07-31T15:31:33;3.63;;;1.30;;
81544;SDS011;70990;50.618;7.346;2023-07-31T15:34:00;3.67;;;1.30;;
81544;SDS011;70990;50.618;7.346;2023-07-31T15:36:26;4.03;;;1.58;;
81544;SDS011;70990;50.618;7.346;2023-07-31T15:38:53;3.63;;;1.25;;
81544;SDS011;70990;50.618;7.346;2023-07-31T15:41:19;2.85;;;1.30;;
81544;SDS011;70990;50.618;7.346;2023-07-31T15:43:47;5.45;;;1.48;;
81544;SDS011;70990;50.618;7.346;2023-07-31T15:46:14;4.30;;;1.55;;
81544;SDS011;70990;50.618;7.346;2023-07-31T15:48:41;3.65;;;1.50;;
81544;SDS011;70990;50.618;7.346;2023-07-31T15:51:07;5.32;;;1.48;;
81544;SDS011;70990;50.618;7.346;2023-07-31T15:53:34;4.00;;;1.50;;
81544;SDS011;70990;50.618;7.346;2023-07-31T15:56:00;4.25;;;1.30;;
81544;SDS011;70990;50.618;7.346;2023-07-31T15:58:27;5.05;;;1.80;;
81544;SDS011;70990;50.618;7.346;2023-07-31T16:00:53;5.47;;;1.65;;
81544;SDS011;70990;50.618;7.346;2023-07-31T16:03:20;5.22;;;2.10;;
81544;SDS011;70990;50.618;7.346;2023-07-31T16:05:48;4.43;;;1.52;;
81544;SDS011;70990;50.618;7.346;2023-07-31T16:08:14;5.35;;;1.80;;
81544;SDS011;70990;50.618;7.346;2023-07-31T16:10:41;6.32;;;1.67;;
81544;SDS011;70990;50.618;7.346;2023-07-31T16:13:08;5.57;;;2.10;;
81544;SDS011;70990;50.618;7.346;2023-07-31T16:15:35;8.32;;;2.35;;
81544;SDS011;70990;50.618;7.346;2023-07-31T16:18:01;4.75;;;1.70;;
81544;SDS011;70990;50.618;7.346;2023-07-31T16:20:28;4.97;;;1.77;;
81544;SDS011;70990;50.618;7.346;2023-07-31T16:22:55;8.10;;;2.28;;
81544;SDS011;70990;50.618;7.346;2023-07-31T16:25:22;4.90;;;1.85;;
81544;SDS011;70990;50.618;7.346;2023-07-31T16:27:48;4.90;;;1.90;;
81544;SDS011;70990;50.618;7.346;2023-07-31T16:30:15;6.30;;;1.95;;
81544;SDS011;70990;50.618;7.346;2023-07-31T16:32:44;7.70;;;2.15;;
81544;SDS011;70990;50.618;7.346;2023-07-31T16:35:10;6.22;;;2.30;;
81544;SDS011;70990;50.618;7.346;2023-07-31T16:37:37;6.03;;;1.90;;
81544;SDS011;70990;50.618;7.346;2023-07-31T16:40:03;5.60;;;2.30;;
81544;SDS011;70990;50.618;7.346;2023-07-31T16:42:30;6.05;;;2.15;;
81544;SDS011;70990;50.618;7.346;2023-07-31T16:44:57;6.40;;;2.70;;
81544;SDS011;70990;50.618;7.346;2023-07-31T16:47:23;5.80;;;2.45;;
81544;SDS011;70990;50.618;7.346;2023-07-31T16:49:50;6.70;;;2.42;;
81544;SDS011;70990;50.618;7.346;2023-07-31T16:52:17;5.22;;;1.90;;
81544;SDS011;70990;50.618;7.346;2023-07-31T16:54:44;5.10;;;1.92;;
81544;SDS011;70990;50.618;7.346;2023-07-31T16:57:10;7.55;;;2.40;;
81544;SDS011;70990;50.618;7.346;2023-07-31T16:59:39;5.70;;;2.00;;
81544;SDS011;70990;50.618;7.346;2023-07-31T17:02:06;9.02;;;2.30;;
81544;SDS011;70990;50.618;7.346;2023-07-31T17:04:33;6.45;;;2.30;;
81544;SDS011;70990;50.618;7.346;2023-07-31T17:07:00;9.98;;;2.40;;
81544;SDS011;70990;50.618;7.346;2023-07-31T17:09:27;6.80;;;2.15;;
81544;SDS011;70990;50.618;7.346;2023-07-31T17:11:54;8.05;;;2.17;;
81544;SDS011;70990;50.618;7.346;2023-07-31T17:14:21;6.75;;;2.35;;
81544;SDS011;70990;50.618;7.346;2023-07-31T17:16:47;8.38;;;2.58;;
81544;SDS011;70990;50.618;7.346;2023-07-31T17:19:14;7.93;;;2.40;;
81544;SDS011;70990;50.618;7.346;2023-07-31T17:21:40;7.65;;;2.40;;
81544;SDS011;70990;50.618;7.346;2023-07-31T17:24:07;6.63;;;2.25;;
81544;SDS011;70990;50.618;7.346;2023-07-31T17:26:34;6.68;;;2.22;;
81544;SDS011;70990;50.618;7.346;2023-07-31T17:29:00;7.05;;;2.50;;
81544;SDS011;70990;50.618;7.346;2023-07-31T17:31:27;5.88;;;2.00;;
81544;SDS011;70990;50.618;7.346;2023-07-31T17:33:54;6.75;;;2.40;;
81544;SDS011;70990;50.618;7.346;2023-07-31T17:36:21;5.50;;;2.05;;
81544;SDS011;70990;50.618;7.346;2023-07-31T17:38:47;7.20;;;3.35;;
81544;SDS011;70990;50.618;7.346;2023-07-31T17:41:16;11.05;;;2.75;;
81544;SDS011;70990;50.618;7.346;2023-07-31T17:43:43;10.73;;;3.05;;
81544;SDS011;70990;50.618;7.346;2023-07-31T17:46:09;10.07;;;2.90;;
81544;SDS011;70990;50.618;7.346;2023-07-31T17:48:36;8.23;;;2.30;;
81544;SDS011;70990;50.618;7.346;2023-07-31T17:51:02;8.80;;;2.60;;
81544;SDS011;70990;50.618;7.346;2023-07-31T17:53:29;8.52;;;2.50;;
81544;SDS011;70990;50.618;7.346;2023-07-31T17:55:58;5.57;;;1.98;;
81544;SDS011;70990;50.618;7.346;2023-07-31T17:58:25;8.38;;;2.72;;
81544;SDS011;70990;50.618;7.346;2023-07-31T18:00:51;7.70;;;2.30;;
81544;SDS011;70990;50.618;7.346;2023-07-31T18:03:18;5.72;;;2.25;;
81544;SDS011;70990;50.618;7.346;2023-07-31T18:05:44;7.10;;;2.55;;
81544;SDS011;70990;50.618;7.346;2023-07-31T18:08:11;5.57;;;2.17;;
81544;SDS011;70990;50.618;7.346;2023-07-31T18:10:43;6.68;;;2.15;;
81544;SDS011;70990;50.618;7.346;2023-07-31T18:13:09;4.78;;;2.30;;
81544;SDS011;70990;50.618;7.346;2023-07-31T18:15:36;6.88;;;2.00;;
81544;SDS011;70990;50.618;7.346;2023-07-31T18:18:03;7.15;;;2.42;;
81544;SDS011;70990;50.618;7.346;2023-07-31T18:20:30;7.25;;;2.63;;
81544;SDS011;70990;50.618;7.346;2023-07-31T18:22:57;7.35;;;2.75;;
81544;SDS011;70990;50.618;7.346;2023-07-31T18:25:23;9.68;;;2.75;;
81544;SDS011;70990;50.618;7.346;2023-07-31T18:27:49;5.22;;;1.95;;
81544;SDS011;70990;50.618;7.346;2023-07-31T18:30:16;5.18;;;1.92;;
81544;SDS011;70990;50.618;7.346;2023-07-31T18:32:42;4.57;;;1.52;;
81544;SDS011;70990;50.618;7.346;2023-07-31T18:35:09;4.78;;;2.00;;
81544;SDS011;70990;50.618;7.346;2023-07-31T18:37:36;5.07;;;1.80;;
81544;SDS011;70990;50.618;7.346;2023-07-31T18:40:02;4.75;;;1.92;;
81544;SDS011;70990;50.618;7.346;2023-07-31T18:42:29;7.45;;;1.75;;
81544;SDS011;70990;50.618;7.346;2023-07-31T18:44:56;8.40;;;1.75;;
81544;SDS011;70990;50.618;7.346;2023-07-31T18:47:22;4.50;;;1.90;;
81544;SDS011;70990;50.618;7.346;2023-07-31T18:49:49;4.15;;;1.40;;
81544;SDS011;70990;50.618;7.346;2023-07-31T18:52:16;6.40;;;1.67;;
81544;SDS011;70990;50.618;7.346;2023-07-31T18:54:42;4.60;;;1.50;;
81544;SDS011;70990;50.618;7.346;2023-07-31T18:57:09;3.53;;;1.10;;
81544;SDS011;70990;50.618;7.346;2023-07-31T18:59:35;4.50;;;1.40;;
81544;SDS011;70990;50.618;7.346;2023-07-31T19:02:02;2.95;;;1.23;;
81544;SDS011;70990;50.618;7.346;2023-07-31T19:04:28;3.85;;;1.13;;
81544;SDS011;70990;50.618;7.346;2023-07-31T19:06:55;4.72;;;1.20;;
81544;SDS011;70990;50.618;7.346;2023-07-31T19:09:31;3.38;;;1.25;;
81544;SDS011;70990;50.618;7.346;2023-07-31T19:11:59;3.63;;;1.10;;
81544;SDS011;70990;50.618;7.346;2023-07-31T19:14:25;3.22;;;1.10;;
81544;SDS011;70990;50.618;7.346;2023-07-31T19:16:52;5.03;;;1.13;;
81544;SDS011;70990;50.618;7.346;2023-07-31T19:19:19;3.53;;;1.10;;
81544;SDS011;70990;50.618;7.346;2023-07-31T19:21:46;5.22;;;1.30;;
81544;SDS011;70990;50.618;7.346;2023-07-31T19:24:13;2.38;;;1.02;;
81544;SDS011;70990;50.618;7.346;2023-07-31T19:26:40;3.95;;;1.00;;
81544;SDS011;70990;50.618;7.346;2023-07-31T19:29:07;2.80;;;1.10;;
81544;SDS011;70990;50.618;7.346;2023-07-31T19:31:33;2.08;;;0.85;;
81544;SDS011;70990;50.618;7.346;2023-07-31T19:34:00;2.50;;;0.90;;
81544;SDS011;70990;50.618;7.346;2023-07-31T19:36:27;2.83;;;0.88;;
81544;SDS011;70990;50.618;7.346;2023-07-31T19:38:53;4.80;;;1.25;;
81544;SDS011;70990;50.618;7.346;2023-07-31T19:41:20;2.90;;;1.10;;
81544;SDS011;70990;50.618;7.346;2023-07-31T19:43:46;2.42;;;0.95;;
81544;SDS011;70990;50.618;7.346;2023-07-31T19:46:13;3.42;;;1.00;;
81544;SDS011;70990;50.618;7.346;2023-07-31T19:48:39;3.38;;;0.90;;
81544;SDS011;70990;50.618;7.346;2023-07-31T19:51:07;2.42;;;0.85;;
81544;SDS011;70990;50.618;7.346;2023-07-31T19:53:33;3.58;;;1.05;;
81544;SDS011;70990;50.618;7.346;2023-07-31T19:56:00;3.67;;;1.20;;
81544;SDS011;70990;50.618;7.346;2023-07-31T19:58:26;3.40;;;1.15;;
81544;SDS011;70990;50.618;7.346;2023-07-31T20:00:53;3.17;;;1.00;;
81544;SDS011;70990;50.618;7.346;2023-07-31T20:03:20;3.58;;;1.20;;
81544;SDS011;70990;50.618;7.346;2023-07-31T20:05:46;3.67;;;1.15;;
81544;SDS011;70990;50.618;7.346;2023-07-31T20:08:13;2.75;;;1.25;;
81544;SDS011;70990;50.618;7.346;2023-07-31T20:10:40;3.00;;;1.00;;
81544;SDS011;70990;50.618;7.346;2023-07-31T20:13:07;2.53;;;1.02;;
81544;SDS011;70990;50.618;7.346;2023-07-31T20:15:33;4.25;;;1.30;;
81544;SDS011;70990;50.618;7.346;2023-07-31T20:18:00;4.32;;;1.20;;
81544;SDS011;70990;50.618;7.346;2023-07-31T20:20:27;3.45;;;1.30;;
81544;SDS011;70990;50.618;7.346;2023-07-31T20:22:54;4.75;;;1.30;;
81544;SDS011;70990;50.618;7.346;2023-07-31T20:25:21;2.03;;;0.82;;
81544;SDS011;70990;50.618;7.346;2023-07-31T20:27:48;5.13;;;1.20;;
81544;SDS011;70990;50.618;7.346;2023-07-31T20:30:14;3.03;;;1.17;;
81544;SDS011;70990;50.618;7.346;2023-07-31T20:32:42;3.20;;;1.00;;
81544;SDS011;70990;50.618;7.346;2023-07-31T20:35:09;3.17;;;1.10;;
81544;SDS011;70990;50.618;7.346;2023-07-31T20:37:36;4.15;;;1.10;;
81544;SDS011;70990;50.618;7.346;2023-07-31T20:40:05;3.53;;;1.20;;
81544;SDS011;70990;50.618;7.346;2023-07-31T20:42:32;4.20;;;1.45;;
81544;SDS011;70990;50.618;7.346;2023-07-31T20:44:58;2.47;;;1.05;;
81544;SDS011;70990;50.618;7.346;2023-07-31T20:47:25;3.20;;;1.50;;
81544;SDS011;70990;50.618;7.346;2023-07-31T20:49:51;6.45;;;1.50;;
81544;SDS011;70990;50.618;7.346;2023-07-31T20:52:18;3.75;;;0.90;;
81544;SDS011;70990;50.618;7.346;2023-07-31T20:54:44;3.15;;;1.30;;
81544;SDS011;70990;50.618;7.346;2023-07-31T20:57:11;3.95;;;1.70;;
81544;SDS011;70990;50.618;7.346;2023-07-31T20:59:38;4.85;;;1.23;;
81544;SDS011;70990;50.618;7.346;2023-07-31T21:02:05;2.92;;;1.17;;
81544;SDS011;70990;50.618;7.346;2023-07-31T21:04:32;4.57;;;1.40;;
81544;SDS011;70990;50.618;7.346;2023-07-31T21:07:02;5.55;;;1.48;;
81544;SDS011;70990;50.618;7.346;2023-07-31T21:09:29;4.22;;;1.35;;
81544;SDS011;70990;50.618;7.346;2023-07-31T21:11:55;5.05;;;1.60;;
81544;SDS011;70990;50.618;7.346;2023-07-31T21:14:24;4.07;;;1.50;;
81544;SDS011;70990;50.618;7.346;2023-07-31T21:16:50;4.95;;;1.40;;
81544;SDS011;70990;50.618;7.346;2023-07-31T21:19:17;7.53;;;2.25;;
81544;SDS011;70990;50.618;7.346;2023-07-31T21:21:43;3.70;;;1.55;;
81544;SDS011;70990;50.618;7.346;2023-07-31T21:24:10;3.65;;;1.35;;
81544;SDS011;70990;50.618;7.346;2023-07-31T21:26:37;4.85;;;1.70;;
81544;SDS011;70990;50.618;7.346;2023-07-31T21:29:06;6.45;;;1.30;;
81544;SDS011;70990;50.618;7.346;2023-07-31T21:31:32;5.55;;;1.60;;
81544;SDS011;70990;50.618;7.346;2023-07-31T21:33:59;4.78;;;1.60;;
81544;SDS011;70990;50.618;7.346;2023-07-31T21:36:25;4.80;;;1.40;;
81544;SDS011;70990;50.618;7.346;2023-07-31T21:38:52;4.15;;;1.50;;
81544;SDS011;70990;50.618;7.346;2023-07-31T21:41:18;4.45;;;1.48;;
81544;SDS011;70990;50.618;7.346;2023-07-31T21:43:45;5.10;;;1.35;;
81544;SDS011;70990;50.618;7.346;2023-07-31T21:46:12;5.10;;;1.35;;
81544;SDS011;70990;50.618;7.346;2023-07-31T21:48:39;4.43;;;1.20;;
81544;SDS011;70990;50.618;7.346;2023-07-31T21:51:05;3.30;;;1.30;;
81544;SDS011;70990;50.618;7.346;2023-07-31T21:53:32;5.70;;;1.60;;
81544;SDS011;70990;50.618;7.346;2023-07-31T21:55:58;5.25;;;1.48;;
81544;SDS011;70990;50.618;7.346;2023-07-31T21:58:26;3.75;;;1.25;;
81544;SDS011;70990;50.618;7.346;2023-07-31T22:00:52;3.10;;;1.20;;
81544;SDS011;70990;50.618;7.346;2023-07-31T22:03:19;4.65;;;1.38;;
81544;SDS011;70990;50.618;7.346;2023-07-31T22:05:46;4.38;;;1.42;;
81544;SDS011;70990;50.618;7.346;2023-07-31T22:08:12;3.72;;;1.30;;
81544;SDS011;70990;50.618;7.346;2023-07-31T22:10:39;4.40;;;1.50;;
81544;SDS011;70990;50.618;7.346;2023-07-31T22:13:05;4.30;;;1.40;;
81544;SDS011;70990;50.618;7.346;2023-07-31T22:15:32;3.78;;;1.25;;
81544;SDS011;70990;50.618;7.346;2023-07-31T22:17:58;3.67;;;1.48;;
81544;SDS011;70990;50.618;7.346;2023-07-31T22:20:28;5.18;;;1.38;;
81544;SDS011;70990;50.618;7.346;2023-07-31T22:22:55;2.25;;;0.98;;
81544;SDS011;70990;50.618;7.346;2023-07-31T22:25:21;2.95;;;1.10;;
81544;SDS011;70990;50.618;7.346;2023-07-31T22:27:48;4.53;;;1.25;;
81544;SDS011;70990;50.618;7.346;2023-07-31T22:30:16;5.13;;;1.23;;
81544;SDS011;70990;50.618;7.346;2023-07-31T22:32:43;3.63;;;1.38;;
81544;SDS011;70990;50.618;7.346;2023-07-31T22:35:09;4.72;;;1.30;;
81544;SDS011;70990;50.618;7.346;2023-07-31T22:37:36;3.53;;;0.90;;
81544;SDS011;70990;50.618;7.346;2023-07-31T22:40:02;3.17;;;1.23;;
81544;SDS011;70990;50.618;7.346;2023-07-31T22:42:30;4.22;;;1.20;;
81544;SDS011;70990;50.618;7.346;2023-07-31T22:44:56;3.45;;;1.02;;
81544;SDS011;70990;50.618;7.346;2023-07-31T22:47:23;4.13;;;1.05;;
81544;SDS011;70990;50.618;7.346;2023-07-31T22:49:49;2.45;;;0.80;;
81544;SDS011;70990;50.618;7.346;2023-07-31T22:52:16;4.00;;;1.00;;
81544;SDS011;70990;50.618;7.346;2023-07-31T22:54:42;2.33;;;0.80;;
81544;SDS011;70990;50.618;7.346;2023-07-31T22:57:09;3.40;;;1.05;;
81544;SDS011;70990;50.618;7.346;2023-07-31T22:59:36;4.35;;;0.75;;
81544;SDS011;70990;50.618;7.346;2023-07-31T23:02:02;1.90;;;0.70;;
81544;SDS011;70990;50.618;7.346;2023-07-31T23:04:29;1.45;;;0.63;;
81544;SDS011;70990;50.618;7.346;2023-07-31T23:06:58;1.63;;;0.43;;
81544;SDS011;70990;50.618;7.346;2023-07-31T23:09:24;3.30;;;0.73;;
81544;SDS011;70990;50.618;7.346;2023-07-31T23:11:51;1.17;;;0.55;;
81544;SDS011;70990;50.618;7.346;2023-07-31T23:14:17;0.93;;;0.43;;
81544;SDS011;70990;50.618;7.346;2023-07-31T23:16:44;1.98;;;0.60;;
81544;SDS011;70990;50.618;7.346;2023-07-31T23:19:10;0.57;;;0.30;;
81544;SDS011;70990;50.618;7.346;2023-07-31T23:21:37;2.08;;;0.50;;
81544;SDS011;70990;50.618;7.346;2023-07-31T23:24:03;1.27;;;0.40;;
81544;SDS011;70990;50.618;7.346;2023-07-31T23:26:30;1.17;;;0.40;;
81544;SDS011;70990;50.618;7.346;2023-07-31T23:28:57;1.58;;;0.20;;
81544;SDS011;70990;50.618;7.346;2023-07-31T23:31:24;2.22;;;0.70;;
81544;SDS011;70990;50.618;7.346;2023-07-31T23:33:50;3.25;;;0.75;;
81544;SDS011;70990;50.618;7.346;2023-07-31T23:36:17;1.40;;;0.50;;
81544;SDS011;70990;50.618;7.346;2023-07-31T23:38:43;3.95;;;0.70;;
81544;SDS011;70990;50.618;7.346;2023-07-31T23:41:09;1.77;;;0.30;;
81544;SDS011;70990;50.618;7.346;2023-07-31T23:43:36;4.22;;;0.63;;
81544;SDS011;70990;50.618;7.346;2023-07-31T23:46:02;1.38;;;0.50;;
81544;SDS011;70990;50.618;7.346;2023-07-31T23:48:29;0.93;;;0.30;;
81544;SDS011;70990;50.618;7.346;2023-07-31T23:50:55;2.83;;;0.40;;
81544;SDS011;70990;50.618;7.346;2023-07-31T23:53:22;0.38;;;0.30;;
81544;SDS011;70990;50.618;7.346;2023-07-31T23:58:44;1.50;;;0.60;;
